Terminal Aerodrome Forecast
Issued by NWS

Home | Current Version | Previous Version | Text Only | Print | Product List | Glossary On
Versions: 1 2 3 4 5 6 7 8 9 10 11 12 13 14 15 16 17 18 19 20 21 22 23 24 25 26 27 28 29 30 31 32 33 34
197
FTUS43 KDVN 272033 AAA
TAFCID
TAF AMD
KCID 272033Z 2721/2818 09018G28KT P6SM -SHRA OVC006
     FM272300 09018G28KT P6SM OVC025
     FM280100 08014G20KT P6SM SHRA VCTS OVC015CB
     FM280500 05012KT 4SM BR OVC015=

USA.gov is the U.S. government's official web portal to all federal, state and local government web resources and services.